Impacts TAF Board INFO
FOR SITUATIONAL AWARENESS. NOT TO BE USED FOR FLIGHT PLANNING PURPOSES.
IDs:

KSTL - St Louis/Lambert Int, MO, US

Issued at 0033 UTC 28 May 2018
Updated at 0137 UTC 28 May 2018
Potential Impact None Slight Moderate High
Time<<29/02Z 29/03Z 29/04Z 29/05Z 29/06Z 29/07Z 29/08Z 29/09Z 29/10Z 29/11Z 29/12Z 29/13Z 29/14Z
Type PRVL PRVL PRVL PRVL
VIS >6 >6 >6 >6
CIG -- -- -- --
Cover SCT SCT SCT SCT
FltCat VFR VFR VFR VFR
WX -- -- -- --
WDir 100 100 100 100
WSpd 5 5 5 5
WGst -- -- -- --

Raw TAF
KSTL 280033Z 2801/2906 06008KT P6SM VCTS BKN040CB OVC080
  FM280200 VRB04KT P6SM SCT100 BKN250
  FM281500 09008KT P6SM FEW040 SCT250
  FM290100 10005KT P6SM SCT250


METAR Board
Radar Display
Forecast Discussion

FOR SITUATIONAL AWARENESS. NOT TO BE USED FOR FLIGHT PLANNING PURPOSES.